sensor_id;sensor_type;location;lat;lon;timestamp;temperature;humidity
12771;DHT22;6449;47.666;9.160;2023-07-20T00:02:12;21.10;99.90
12771;DHT22;6449;47.666;9.160;2023-07-20T00:07:06;21.10;99.90
12771;DHT22;6449;47.666;9.160;2023-07-20T00:18:57;21.00;99.90
12771;DHT22;6449;47.666;9.160;2023-07-20T00:30:59;21.10;99.90
12771;DHT22;6449;47.666;9.160;2023-07-20T00:42:25;21.30;99.90
12771;DHT22;6449;47.666;9.160;2023-07-20T00:47:19;21.10;99.90
12771;DHT22;6449;47.666;9.160;2023-07-20T00:52:13;20.90;99.90
12771;DHT22;6449;47.666;9.160;2023-07-20T00:57:07;21.00;99.90
12771;DHT22;6449;47.666;9.160;2023-07-20T01:02:03;21.20;99.90
12771;DHT22;6449;47.666;9.160;2023-07-20T01:07:02;21.20;99.90
12771;DHT22;6449;47.666;9.160;2023-07-20T01:12:09;21.20;99.90
12771;DHT22;6449;47.666;9.160;2023-07-20T01:17:07;21.30;99.90
12771;DHT22;6449;47.666;9.160;2023-07-20T01:22:03;21.40;99.90
12771;DHT22;6449;47.666;9.160;2023-07-20T01:27:57;21.40;99.90
12771;DHT22;6449;47.666;9.160;2023-07-20T01:33:16;21.50;99.90
12771;DHT22;6449;47.666;9.160;2023-07-20T01:38:16;21.50;99.90
12771;DHT22;6449;47.666;9.160;2023-07-20T01:43:12;21.50;99.90
12771;DHT22;6449;47.666;9.160;2023-07-20T01:54:39;21.50;99.90
12771;DHT22;6449;47.666;9.160;2023-07-20T01:59:33;21.50;99.90
12771;DHT22;6449;47.666;9.160;2023-07-20T02:04:28;21.40;99.90
12771;DHT22;6449;47.666;9.160;2023-07-20T02:09:44;21.30;99.90
12771;DHT22;6449;47.666;9.160;2023-07-20T02:14:38;21.20;99.90
12771;DHT22;6449;47.666;9.160;2023-07-20T03:18:14;20.80;99.90
12771;DHT22;6449;47.666;9.160;2023-07-20T03:23:08;20.80;99.90
12771;DHT22;6449;47.666;9.160;2023-07-20T03:28:01;20.80;99.90
12771;DHT22;6449;47.666;9.160;2023-07-20T03:32:55;20.70;99.90
12771;DHT22;6449;47.666;9.160;2023-07-20T04:16:57;20.10;99.90
12771;DHT22;6449;47.666;9.160;2023-07-20T05:13:37;20.00;99.90
12771;DHT22;6449;47.666;9.160;2023-07-20T05:18:31;20.00;99.90
12771;DHT22;6449;47.666;9.160;2023-07-20T05:23:24;19.90;99.90
12771;DHT22;6449;47.666;9.160;2023-07-20T05:28:18;19.90;99.90
12771;DHT22;6449;47.666;9.160;2023-07-20T05:33:16;20.00;99.90
12771;DHT22;6449;47.666;9.160;2023-07-20T05:38:10;20.10;99.90
12771;DHT22;6449;47.666;9.160;2023-07-20T05:43:03;20.10;99.90
12771;DHT22;6449;47.666;9.160;2023-07-20T05:47:57;20.00;99.90
12771;DHT22;6449;47.666;9.160;2023-07-20T05:52:53;20.10;99.90
12771;DHT22;6449;47.666;9.160;2023-07-20T05:57:47;20.10;99.90
12771;DHT22;6449;47.666;9.160;2023-07-20T10:31:25;23.80;99.90
12771;DHT22;6449;47.666;9.160;2023-07-20T10:36:25;23.90;99.90
12771;DHT22;6449;47.666;9.160;2023-07-20T10:41:28;24.20;99.90
12771;DHT22;6449;47.666;9.160;2023-07-20T10:46:42;24.80;99.90
12771;DHT22;6449;47.666;9.160;2023-07-20T10:51:41;25.10;99.90
12771;DHT22;6449;47.666;9.160;2023-07-20T10:56:36;25.40;99.90
12771;DHT22;6449;47.666;9.160;2023-07-20T11:01:37;25.50;99.90
12771;DHT22;6449;47.666;9.160;2023-07-20T11:06:33;25.40;99.90
12771;DHT22;6449;47.666;9.160;2023-07-20T11:11:27;25.40;99.90
12771;DHT22;6449;47.666;9.160;2023-07-20T17:13:04;24.90;99.90
12771;DHT22;6449;47.666;9.160;2023-07-20T17:18:02;24.80;99.90
12771;DHT22;6449;47.666;9.160;2023-07-20T17:22:55;24.80;99.90
12771;DHT22;6449;47.666;9.160;2023-07-20T17:27:49;24.80;99.90
12771;DHT22;6449;47.666;9.160;2023-07-20T17:32:46;24.80;99.90
12771;DHT22;6449;47.666;9.160;2023-07-20T17:37:41;24.70;99.90
12771;DHT22;6449;47.666;9.160;2023-07-20T17:42:37;24.70;99.90
12771;DHT22;6449;47.666;9.160;2023-07-20T17:47:37;24.60;99.90
12771;DHT22;6449;47.666;9.160;2023-07-20T17:52:32;24.60;99.90
12771;DHT22;6449;47.666;9.160;2023-07-20T17:57:26;24.60;99.90
12771;DHT22;6449;47.666;9.160;2023-07-20T18:02:20;24.50;99.90
12771;DHT22;6449;47.666;9.160;2023-07-20T18:07:17;24.50;99.90
12771;DHT22;6449;47.666;9.160;2023-07-20T18:57:51;23.50;99.90
12771;DHT22;6449;47.666;9.160;2023-07-20T19:02:45;23.00;99.90
12771;DHT22;6449;47.666;9.160;2023-07-20T19:07:38;22.60;99.90
12771;DHT22;6449;47.666;9.160;2023-07-20T19:19:07;22.30;99.90
12771;DHT22;6449;47.666;9.160;2023-07-20T19:24:01;22.20;99.90
12771;DHT22;6449;47.666;9.160;2023-07-20T19:29:00;22.20;99.90
12771;DHT22;6449;47.666;9.160;2023-07-20T19:33:56;22.20;99.90
12771;DHT22;6449;47.666;9.160;2023-07-20T19:38:53;22.10;99.90
12771;DHT22;6449;47.666;9.160;2023-07-20T19:43:46;22.00;99.90
12771;DHT22;6449;47.666;9.160;2023-07-20T20:14:47;21.50;99.90
12771;DHT22;6449;47.666;9.160;2023-07-20T20:19:41;21.60;99.90
12771;DHT22;6449;47.666;9.160;2023-07-20T21:05:01;21.40;99.90
12771;DHT22;6449;47.666;9.160;2023-07-20T21:09:57;21.10;99.90
12771;DHT22;6449;47.666;9.160;2023-07-20T21:14:51;21.10;99.90
12771;DHT22;6449;47.666;9.160;2023-07-20T21:19:44;20.80;99.90
12771;DHT22;6449;47.666;9.160;2023-07-20T21:24:39;20.60;99.90
12771;DHT22;6449;47.666;9.160;2023-07-20T21:29:34;20.60;99.90
12771;DHT22;6449;47.666;9.160;2023-07-20T21:34:27;20.50;99.90
12771;DHT22;6449;47.666;9.160;2023-07-20T21:39:21;20.50;99.90
12771;DHT22;6449;47.666;9.160;2023-07-20T22:56:02;20.20;99.90
12771;DHT22;6449;47.666;9.160;2023-07-20T23:00:56;20.30;99.90
12771;DHT22;6449;47.666;9.160;2023-07-20T23:05:49;20.20;99.90
12771;DHT22;6449;47.666;9.160;2023-07-20T23:10:43;20.20;99.90
12771;DHT22;6449;47.666;9.160;2023-07-20T23:15:38;20.10;99.90
12771;DHT22;6449;47.666;9.160;2023-07-20T23:20:32;20.10;99.90
12771;DHT22;6449;47.666;9.160;2023-07-20T23:25:25;20.00;99.90
12771;DHT22;6449;47.666;9.160;2023-07-20T23:30:19;19.80;99.90
12771;DHT22;6449;47.666;9.160;2023-07-20T23:35:13;19.80;99.90
12771;DHT22;6449;47.666;9.160;2023-07-20T23:40:11;19.70;99.90
12771;DHT22;6449;47.666;9.160;2023-07-20T23:45:07;19.60;99.90
